sensor_id;sensor_type;location;lat;lon;timestamp;P1;durP1;ratioP1;P2;durP2;ratioP2
21245;SDS011;10781;50.928;4.440;2024-01-07T00:02:13;11.35;;;7.93;;
21245;SDS011;10781;50.928;4.440;2024-01-07T00:04:39;11.38;;;7.32;;
21245;SDS011;10781;50.928;4.440;2024-01-07T00:07:07;10.75;;;7.93;;
21245;SDS011;10781;50.928;4.440;2024-01-07T00:09:32;11.60;;;7.97;;
21245;SDS011;10781;50.928;4.440;2024-01-07T00:11:58;11.93;;;7.72;;
21245;SDS011;10781;50.928;4.440;2024-01-07T00:14:24;12.32;;;8.25;;
21245;SDS011;10781;50.928;4.440;2024-01-07T00:16:50;13.45;;;8.70;;
21245;SDS011;10781;50.928;4.440;2024-01-07T00:19:16;11.98;;;7.95;;
21245;SDS011;10781;50.928;4.440;2024-01-07T00:21:42;13.80;;;8.52;;
21245;SDS011;10781;50.928;4.440;2024-01-07T00:24:09;12.93;;;8.18;;
21245;SDS011;10781;50.928;4.440;2024-01-07T00:26:34;11.93;;;8.60;;
21245;SDS011;10781;50.928;4.440;2024-01-07T00:29:00;12.93;;;8.32;;
21245;SDS011;10781;50.928;4.440;2024-01-07T00:31:25;12.13;;;8.32;;
21245;SDS011;10781;50.928;4.440;2024-01-07T00:33:51;13.05;;;8.63;;
21245;SDS011;10781;50.928;4.440;2024-01-07T00:36:18;15.05;;;8.98;;
21245;SDS011;10781;50.928;4.440;2024-01-07T00:38:44;12.95;;;8.48;;
21245;SDS011;10781;50.928;4.440;2024-01-07T00:41:09;10.55;;;7.75;;
21245;SDS011;10781;50.928;4.440;2024-01-07T00:43:35;11.02;;;8.30;;
21245;SDS011;10781;50.928;4.440;2024-01-07T00:46:02;11.98;;;8.27;;
21245;SDS011;10781;50.928;4.440;2024-01-07T00:48:28;11.80;;;8.10;;
21245;SDS011;10781;50.928;4.440;2024-01-07T00:50:53;12.30;;;8.07;;
21245;SDS011;10781;50.928;4.440;2024-01-07T00:53:20;11.77;;;8.02;;
21245;SDS011;10781;50.928;4.440;2024-01-07T00:55:45;13.02;;;8.70;;
21245;SDS011;10781;50.928;4.440;2024-01-07T00:58:11;12.15;;;7.95;;
21245;SDS011;10781;50.928;4.440;2024-01-07T01:00:37;12.23;;;8.48;;
21245;SDS011;10781;50.928;4.440;2024-01-07T01:03:03;13.43;;;8.50;;
21245;SDS011;10781;50.928;4.440;2024-01-07T01:05:30;14.10;;;8.93;;
21245;SDS011;10781;50.928;4.440;2024-01-07T01:07:57;13.13;;;8.73;;
21245;SDS011;10781;50.928;4.440;2024-01-07T01:10:22;13.57;;;8.88;;
21245;SDS011;10781;50.928;4.440;2024-01-07T01:12:48;13.70;;;9.40;;
21245;SDS011;10781;50.928;4.440;2024-01-07T01:15:13;14.07;;;9.18;;
21245;SDS011;10781;50.928;4.440;2024-01-07T01:17:41;12.98;;;9.35;;
21245;SDS011;10781;50.928;4.440;2024-01-07T01:20:07;15.95;;;9.45;;
21245;SDS011;10781;50.928;4.440;2024-01-07T01:22:36;14.55;;;10.10;;
21245;SDS011;10781;50.928;4.440;2024-01-07T01:25:01;16.38;;;10.13;;
21245;SDS011;10781;50.928;4.440;2024-01-07T01:27:28;15.05;;;9.98;;
21245;SDS011;10781;50.928;4.440;2024-01-07T01:29:54;14.52;;;9.82;;
21245;SDS011;10781;50.928;4.440;2024-01-07T01:32:19;16.30;;;9.93;;
21245;SDS011;10781;50.928;4.440;2024-01-07T01:34:45;14.55;;;9.82;;
21245;SDS011;10781;50.928;4.440;2024-01-07T01:37:10;14.23;;;9.75;;
21245;SDS011;10781;50.928;4.440;2024-01-07T01:39:39;16.95;;;10.35;;
21245;SDS011;10781;50.928;4.440;2024-01-07T01:42:07;14.25;;;9.25;;
21245;SDS011;10781;50.928;4.440;2024-01-07T01:44:34;16.50;;;9.93;;
21245;SDS011;10781;50.928;4.440;2024-01-07T01:47:00;14.32;;;9.77;;
21245;SDS011;10781;50.928;4.440;2024-01-07T01:49:27;13.82;;;9.23;;
21245;SDS011;10781;50.928;4.440;2024-01-07T01:51:54;13.55;;;9.05;;
21245;SDS011;10781;50.928;4.440;2024-01-07T01:54:20;14.30;;;9.15;;
21245;SDS011;10781;50.928;4.440;2024-01-07T01:56:47;13.13;;;8.95;;
21245;SDS011;10781;50.928;4.440;2024-01-07T01:59:14;12.18;;;8.63;;
21245;SDS011;10781;50.928;4.440;2024-01-07T02:01:40;14.57;;;8.90;;
21245;SDS011;10781;50.928;4.440;2024-01-07T02:04:06;14.35;;;8.95;;
21245;SDS011;10781;50.928;4.440;2024-01-07T02:06:34;12.25;;;7.60;;
21245;SDS011;10781;50.928;4.440;2024-01-07T02:09:01;14.00;;;8.35;;
21245;SDS011;10781;50.928;4.440;2024-01-07T02:11:27;12.68;;;7.88;;
21245;SDS011;10781;50.928;4.440;2024-01-07T02:13:56;13.00;;;8.38;;
21245;SDS011;10781;50.928;4.440;2024-01-07T02:16:23;14.52;;;9.10;;
21245;SDS011;10781;50.928;4.440;2024-01-07T02:18:49;12.27;;;7.93;;
21245;SDS011;10781;50.928;4.440;2024-01-07T02:21:15;13.20;;;9.07;;
21245;SDS011;10781;50.928;4.440;2024-01-07T02:23:41;12.65;;;8.68;;
21245;SDS011;10781;50.928;4.440;2024-01-07T02:26:07;13.07;;;8.63;;
21245;SDS011;10781;50.928;4.440;2024-01-07T02:28:33;12.95;;;8.85;;
21245;SDS011;10781;50.928;4.440;2024-01-07T02:30:59;13.48;;;8.93;;
21245;SDS011;10781;50.928;4.440;2024-01-07T02:33:25;13.85;;;8.70;;
21245;SDS011;10781;50.928;4.440;2024-01-07T02:35:51;13.25;;;8.73;;
21245;SDS011;10781;50.928;4.440;2024-01-07T02:38:16;13.02;;;8.88;;
21245;SDS011;10781;50.928;4.440;2024-01-07T02:40:42;13.63;;;9.55;;
21245;SDS011;10781;50.928;4.440;2024-01-07T02:43:08;14.35;;;9.05;;
21245;SDS011;10781;50.928;4.440;2024-01-07T02:45:33;16.33;;;9.55;;
21245;SDS011;10781;50.928;4.440;2024-01-07T02:47:59;16.00;;;10.30;;
21245;SDS011;10781;50.928;4.440;2024-01-07T02:50:25;17.67;;;10.45;;
21245;SDS011;10781;50.928;4.440;2024-01-07T02:52:50;17.80;;;10.88;;
21245;SDS011;10781;50.928;4.440;2024-01-07T02:55:16;17.95;;;11.38;;
21245;SDS011;10781;50.928;4.440;2024-01-07T02:57:42;19.25;;;11.00;;
21245;SDS011;10781;50.928;4.440;2024-01-07T03:00:07;20.30;;;12.10;;
21245;SDS011;10781;50.928;4.440;2024-01-07T03:02:33;16.95;;;10.68;;
21245;SDS011;10781;50.928;4.440;2024-01-07T03:04:59;20.05;;;11.85;;
21245;SDS011;10781;50.928;4.440;2024-01-07T03:07:25;19.27;;;11.93;;
21245;SDS011;10781;50.928;4.440;2024-01-07T03:09:50;18.88;;;11.98;;
21245;SDS011;10781;50.928;4.440;2024-01-07T03:12:16;23.77;;;12.90;;
21245;SDS011;10781;50.928;4.440;2024-01-07T03:14:42;18.95;;;12.02;;
21245;SDS011;10781;50.928;4.440;2024-01-07T03:17:07;19.83;;;12.18;;
21245;SDS011;10781;50.928;4.440;2024-01-07T03:19:34;20.05;;;12.25;;
21245;SDS011;10781;50.928;4.440;2024-01-07T03:21:59;20.13;;;12.05;;
21245;SDS011;10781;50.928;4.440;2024-01-07T03:24:25;19.13;;;12.30;;
21245;SDS011;10781;50.928;4.440;2024-01-07T03:26:51;21.05;;;13.10;;
21245;SDS011;10781;50.928;4.440;2024-01-07T03:29:16;20.88;;;13.23;;
21245;SDS011;10781;50.928;4.440;2024-01-07T03:31:42;21.70;;;13.20;;
21245;SDS011;10781;50.928;4.440;2024-01-07T03:34:08;24.05;;;13.20;;
21245;SDS011;10781;50.928;4.440;2024-01-07T03:36:33;21.85;;;12.95;;
21245;SDS011;10781;50.928;4.440;2024-01-07T03:38:59;21.65;;;13.63;;
21245;SDS011;10781;50.928;4.440;2024-01-07T03:41:25;21.08;;;12.70;;
21245;SDS011;10781;50.928;4.440;2024-01-07T03:43:51;20.05;;;12.68;;
21245;SDS011;10781;50.928;4.440;2024-01-07T03:46:18;23.40;;;13.98;;
21245;SDS011;10781;50.928;4.440;2024-01-07T03:48:44;26.23;;;14.88;;
21245;SDS011;10781;50.928;4.440;2024-01-07T03:51:10;26.40;;;15.27;;
21245;SDS011;10781;50.928;4.440;2024-01-07T03:53:36;24.45;;;14.13;;
21245;SDS011;10781;50.928;4.440;2024-01-07T03:56:01;25.75;;;14.40;;
21245;SDS011;10781;50.928;4.440;2024-01-07T03:58:27;27.65;;;15.93;;
21245;SDS011;10781;50.928;4.440;2024-01-07T04:00:53;25.55;;;14.95;;
21245;SDS011;10781;50.928;4.440;2024-01-07T04:03:19;28.27;;;15.30;;
21245;SDS011;10781;50.928;4.440;2024-01-07T04:05:44;27.00;;;16.17;;
21245;SDS011;10781;50.928;4.440;2024-01-07T04:08:10;27.45;;;15.98;;
21245;SDS011;10781;50.928;4.440;2024-01-07T04:10:37;27.30;;;15.80;;
21245;SDS011;10781;50.928;4.440;2024-01-07T04:13:03;28.95;;;16.63;;
21245;SDS011;10781;50.928;4.440;2024-01-07T04:15:32;30.10;;;16.33;;
21245;SDS011;10781;50.928;4.440;2024-01-07T04:18:00;30.05;;;16.38;;
21245;SDS011;10781;50.928;4.440;2024-01-07T04:20:29;31.33;;;17.15;;
21245;SDS011;10781;50.928;4.440;2024-01-07T04:22:55;27.27;;;15.40;;
21245;SDS011;10781;50.928;4.440;2024-01-07T04:25:22;28.08;;;15.52;;
21245;SDS011;10781;50.928;4.440;2024-01-07T04:27:48;29.50;;;15.75;;
21245;SDS011;10781;50.928;4.440;2024-01-07T04:30:13;27.02;;;15.80;;
21245;SDS011;10781;50.928;4.440;2024-01-07T04:32:39;30.52;;;16.67;;
21245;SDS011;10781;50.928;4.440;2024-01-07T04:35:06;27.77;;;15.30;;
21245;SDS011;10781;50.928;4.440;2024-01-07T04:37:32;31.23;;;16.02;;
21245;SDS011;10781;50.928;4.440;2024-01-07T04:39:58;32.70;;;16.88;;
21245;SDS011;10781;50.928;4.440;2024-01-07T04:42:24;32.70;;;17.10;;
21245;SDS011;10781;50.928;4.440;2024-01-07T04:44:49;31.05;;;15.70;;
21245;SDS011;10781;50.928;4.440;2024-01-07T04:47:49;31.42;;;16.60;;
21245;SDS011;10781;50.928;4.440;2024-01-07T04:50:07;29.63;;;16.52;;
21245;SDS011;10781;50.928;4.440;2024-01-07T04:52:33;30.75;;;17.38;;
21245;SDS011;10781;50.928;4.440;2024-01-07T04:54:59;30.40;;;15.95;;
21245;SDS011;10781;50.928;4.440;2024-01-07T04:57:24;28.35;;;15.75;;
21245;SDS011;10781;50.928;4.440;2024-01-07T04:59:50;30.70;;;17.35;;
21245;SDS011;10781;50.928;4.440;2024-01-07T05:02:17;28.95;;;15.80;;
21245;SDS011;10781;50.928;4.440;2024-01-07T05:04:43;29.38;;;16.60;;
21245;SDS011;10781;50.928;4.440;2024-01-07T05:07:08;32.72;;;17.75;;
21245;SDS011;10781;50.928;4.440;2024-01-07T05:09:34;31.05;;;16.77;;
21245;SDS011;10781;50.928;4.440;2024-01-07T05:12:00;28.88;;;16.83;;
21245;SDS011;10781;50.928;4.440;2024-01-07T05:14:26;30.42;;;16.33;;
21245;SDS011;10781;50.928;4.440;2024-01-07T05:16:53;29.70;;;16.60;;
21245;SDS011;10781;50.928;4.440;2024-01-07T05:19:19;29.38;;;16.13;;
21245;SDS011;10781;50.928;4.440;2024-01-07T05:21:45;29.25;;;15.80;;
21245;SDS011;10781;50.928;4.440;2024-01-07T05:24:10;27.70;;;15.57;;
21245;SDS011;10781;50.928;4.440;2024-01-07T05:26:43;25.85;;;15.55;;
21245;SDS011;10781;50.928;4.440;2024-01-07T05:29:09;25.35;;;15.50;;
21245;SDS011;10781;50.928;4.440;2024-01-07T05:31:36;27.92;;;15.70;;
21245;SDS011;10781;50.928;4.440;2024-01-07T05:34:02;26.15;;;15.02;;
21245;SDS011;10781;50.928;4.440;2024-01-07T05:36:28;28.10;;;14.57;;
21245;SDS011;10781;50.928;4.440;2024-01-07T05:38:54;26.05;;;13.98;;
21245;SDS011;10781;50.928;4.440;2024-01-07T05:41:19;26.92;;;14.90;;
21245;SDS011;10781;50.928;4.440;2024-01-07T05:43:45;26.15;;;15.23;;
21245;SDS011;10781;50.928;4.440;2024-01-07T05:46:11;30.00;;;16.25;;
21245;SDS011;10781;50.928;4.440;2024-01-07T05:48:43;25.63;;;14.32;;
21245;SDS011;10781;50.928;4.440;2024-01-07T05:51:10;29.90;;;15.77;;
21245;SDS011;10781;50.928;4.440;2024-01-07T05:53:37;28.92;;;15.25;;
21245;SDS011;10781;50.928;4.440;2024-01-07T05:56:03;32.40;;;16.38;;
21245;SDS011;10781;50.928;4.440;2024-01-07T05:58:29;26.58;;;15.55;;
21245;SDS011;10781;50.928;4.440;2024-01-07T06:00:55;29.77;;;16.48;;
21245;SDS011;10781;50.928;4.440;2024-01-07T06:03:21;32.35;;;16.23;;
21245;SDS011;10781;50.928;4.440;2024-01-07T06:05:46;42.70;;;23.10;;
21245;SDS011;10781;50.928;4.440;2024-01-07T06:08:12;86.97;;;45.92;;
21245;SDS011;10781;50.928;4.440;2024-01-07T06:10:38;37.75;;;20.30;;
21245;SDS011;10781;50.928;4.440;2024-01-07T06:13:04;35.95;;;18.67;;
21245;SDS011;10781;50.928;4.440;2024-01-07T06:15:30;30.95;;;16.17;;
21245;SDS011;10781;50.928;4.440;2024-01-07T06:17:55;34.65;;;17.52;;
21245;SDS011;10781;50.928;4.440;2024-01-07T06:20:21;32.95;;;17.75;;
21245;SDS011;10781;50.928;4.440;2024-01-07T06:22:47;31.92;;;16.80;;
21245;SDS011;10781;50.928;4.440;2024-01-07T06:25:12;31.08;;;16.85;;
21245;SDS011;10781;50.928;4.440;2024-01-07T06:27:38;31.85;;;17.00;;
21245;SDS011;10781;50.928;4.440;2024-01-07T06:30:05;30.77;;;16.33;;
21245;SDS011;10781;50.928;4.440;2024-01-07T06:32:31;35.08;;;17.40;;
21245;SDS011;10781;50.928;4.440;2024-01-07T06:34:57;30.27;;;15.45;;
21245;SDS011;10781;50.928;4.440;2024-01-07T06:37:23;66.80;;;33.00;;
21245;SDS011;10781;50.928;4.440;2024-01-07T06:39:49;43.28;;;22.50;;
21245;SDS011;10781;50.928;4.440;2024-01-07T06:42:15;39.40;;;19.88;;
21245;SDS011;10781;50.928;4.440;2024-01-07T06:44:40;39.03;;;18.92;;
21245;SDS011;10781;50.928;4.440;2024-01-07T06:47:06;31.80;;;15.98;;
21245;SDS011;10781;50.928;4.440;2024-01-07T06:49:32;34.28;;;17.73;;
21245;SDS011;10781;50.928;4.440;2024-01-07T06:51:58;32.13;;;17.35;;
21245;SDS011;10781;50.928;4.440;2024-01-07T06:54:24;33.83;;;17.08;;
21245;SDS011;10781;50.928;4.440;2024-01-07T06:56:50;38.22;;;17.98;;
21245;SDS011;10781;50.928;4.440;2024-01-07T06:59:16;35.33;;;17.42;;
21245;SDS011;10781;50.928;4.440;2024-01-07T07:01:41;35.25;;;16.83;;
21245;SDS011;10781;50.928;4.440;2024-01-07T07:04:07;35.85;;;17.67;;
21245;SDS011;10781;50.928;4.440;2024-01-07T07:06:33;36.72;;;17.15;;
21245;SDS011;10781;50.928;4.440;2024-01-07T07:08:59;38.17;;;17.67;;
21245;SDS011;10781;50.928;4.440;2024-01-07T07:11:25;75.45;;;36.42;;
21245;SDS011;10781;50.928;4.440;2024-01-07T07:13:51;36.72;;;18.27;;
21245;SDS011;10781;50.928;4.440;2024-01-07T07:16:16;39.92;;;18.52;;
21245;SDS011;10781;50.928;4.440;2024-01-07T07:18:42;37.10;;;18.02;;
21245;SDS011;10781;50.928;4.440;2024-01-07T07:21:08;39.60;;;19.60;;
21245;SDS011;10781;50.928;4.440;2024-01-07T07:23:33;38.55;;;18.58;;
21245;SDS011;10781;50.928;4.440;2024-01-07T07:25:59;38.40;;;19.05;;
21245;SDS011;10781;50.928;4.440;2024-01-07T07:28:25;39.13;;;18.80;;
21245;SDS011;10781;50.928;4.440;2024-01-07T07:30:51;40.28;;;17.67;;
21245;SDS011;10781;50.928;4.440;2024-01-07T07:33:18;41.85;;;18.80;;
21245;SDS011;10781;50.928;4.440;2024-01-07T07:35:43;36.45;;;17.40;;
21245;SDS011;10781;50.928;4.440;2024-01-07T07:38:09;35.85;;;17.38;;
21245;SDS011;10781;50.928;4.440;2024-01-07T07:40:35;39.88;;;17.95;;
21245;SDS011;10781;50.928;4.440;2024-01-07T07:43:00;37.33;;;17.38;;
21245;SDS011;10781;50.928;4.440;2024-01-07T07:45:26;35.47;;;17.77;;
21245;SDS011;10781;50.928;4.440;2024-01-07T07:47:52;38.58;;;18.05;;
21245;SDS011;10781;50.928;4.440;2024-01-07T07:50:17;41.30;;;20.40;;
21245;SDS011;10781;50.928;4.440;2024-01-07T07:52:43;43.20;;;20.58;;
21245;SDS011;10781;50.928;4.440;2024-01-07T07:55:09;44.55;;;21.25;;
21245;SDS011;10781;50.928;4.440;2024-01-07T07:57:35;40.85;;;20.55;;
21245;SDS011;10781;50.928;4.440;2024-01-07T08:00:01;42.22;;;21.27;;
21245;SDS011;10781;50.928;4.440;2024-01-07T08:02:27;41.75;;;20.08;;
21245;SDS011;10781;50.928;4.440;2024-01-07T08:04:53;42.40;;;20.40;;
21245;SDS011;10781;50.928;4.440;2024-01-07T08:07:18;39.75;;;19.83;;
21245;SDS011;10781;50.928;4.440;2024-01-07T08:09:44;40.53;;;19.95;;
21245;SDS011;10781;50.928;4.440;2024-01-07T08:12:09;35.88;;;18.67;;
21245;SDS011;10781;50.928;4.440;2024-01-07T08:14:36;37.47;;;18.88;;
21245;SDS011;10781;50.928;4.440;2024-01-07T08:17:06;41.40;;;19.45;;
21245;SDS011;10781;50.928;4.440;2024-01-07T08:19:32;39.85;;;19.17;;
21245;SDS011;10781;50.928;4.440;2024-01-07T08:21:57;35.10;;;16.90;;
21245;SDS011;10781;50.928;4.440;2024-01-07T08:24:23;37.63;;;17.67;;
21245;SDS011;10781;50.928;4.440;2024-01-07T08:26:49;35.78;;;16.90;;
21245;SDS011;10781;50.928;4.440;2024-01-07T08:29:14;35.53;;;17.60;;
21245;SDS011;10781;50.928;4.440;2024-01-07T08:31:40;30.13;;;16.10;;
21245;SDS011;10781;50.928;4.440;2024-01-07T08:34:07;28.63;;;15.00;;
21245;SDS011;10781;50.928;4.440;2024-01-07T08:36:33;28.35;;;15.48;;
21245;SDS011;10781;50.928;4.440;2024-01-07T08:38:58;27.25;;;14.55;;
21245;SDS011;10781;50.928;4.440;2024-01-07T08:41:25;25.20;;;13.75;;
21245;SDS011;10781;50.928;4.440;2024-01-07T08:43:51;23.83;;;13.05;;
21245;SDS011;10781;50.928;4.440;2024-01-07T08:46:17;25.15;;;13.20;;
21245;SDS011;10781;50.928;4.440;2024-01-07T08:48:45;24.95;;;14.48;;
21245;SDS011;10781;50.928;4.440;2024-01-07T08:51:11;22.65;;;13.45;;
21245;SDS011;10781;50.928;4.440;2024-01-07T08:53:36;24.23;;;13.43;;
21245;SDS011;10781;50.928;4.440;2024-01-07T08:56:02;23.95;;;13.40;;
21245;SDS011;10781;50.928;4.440;2024-01-07T08:58:28;23.30;;;12.52;;
21245;SDS011;10781;50.928;4.440;2024-01-07T09:00:54;21.48;;;11.75;;
21245;SDS011;10781;50.928;4.440;2024-01-07T09:03:19;21.23;;;12.73;;
21245;SDS011;10781;50.928;4.440;2024-01-07T09:05:45;21.10;;;11.95;;
21245;SDS011;10781;50.928;4.440;2024-01-07T09:08:11;19.30;;;12.10;;
21245;SDS011;10781;50.928;4.440;2024-01-07T09:10:39;22.15;;;12.50;;
21245;SDS011;10781;50.928;4.440;2024-01-07T09:13:05;21.38;;;12.73;;
21245;SDS011;10781;50.928;4.440;2024-01-07T09:15:33;23.58;;;13.02;;
21245;SDS011;10781;50.928;4.440;2024-01-07T09:17:59;22.73;;;13.15;;
21245;SDS011;10781;50.928;4.440;2024-01-07T09:20:25;24.77;;;13.05;;
21245;SDS011;10781;50.928;4.440;2024-01-07T09:22:50;20.58;;;13.00;;
21245;SDS011;10781;50.928;4.440;2024-01-07T09:25:16;25.52;;;13.38;;
21245;SDS011;10781;50.928;4.440;2024-01-07T09:27:42;21.42;;;12.93;;
21245;SDS011;10781;50.928;4.440;2024-01-07T09:30:08;25.98;;;13.43;;
21245;SDS011;10781;50.928;4.440;2024-01-07T09:32:39;27.42;;;13.63;;
21245;SDS011;10781;50.928;4.440;2024-01-07T09:35:06;23.30;;;13.65;;
21245;SDS011;10781;50.928;4.440;2024-01-07T09:37:32;26.10;;;14.30;;
21245;SDS011;10781;50.928;4.440;2024-01-07T09:39:57;23.25;;;13.38;;
21245;SDS011;10781;50.928;4.440;2024-01-07T09:42:23;27.25;;;14.90;;
21245;SDS011;10781;50.928;4.440;2024-01-07T09:44:50;26.38;;;14.20;;
21245;SDS011;10781;50.928;4.440;2024-01-07T09:47:16;25.42;;;14.60;;
21245;SDS011;10781;50.928;4.440;2024-01-07T09:49:42;31.17;;;16.27;;
21245;SDS011;10781;50.928;4.440;2024-01-07T09:52:09;26.85;;;15.77;;
21245;SDS011;10781;50.928;4.440;2024-01-07T09:54:39;29.60;;;17.15;;
21245;SDS011;10781;50.928;4.440;2024-01-07T09:57:06;28.63;;;15.57;;
21245;SDS011;10781;50.928;4.440;2024-01-07T09:59:33;25.00;;;14.80;;
21245;SDS011;10781;50.928;4.440;2024-01-07T10:02:00;25.63;;;14.55;;
21245;SDS011;10781;50.928;4.440;2024-01-07T10:04:26;26.15;;;14.70;;
21245;SDS011;10781;50.928;4.440;2024-01-07T10:06:58;28.88;;;15.93;;
21245;SDS011;10781;50.928;4.440;2024-01-07T10:09:24;25.75;;;15.10;;
21245;SDS011;10781;50.928;4.440;2024-01-07T10:11:54;24.83;;;14.38;;
21245;SDS011;10781;50.928;4.440;2024-01-07T10:14:20;25.52;;;14.60;;
21245;SDS011;10781;50.928;4.440;2024-01-07T10:16:49;25.42;;;14.52;;
21245;SDS011;10781;50.928;4.440;2024-01-07T10:19:22;24.20;;;14.80;;
21245;SDS011;10781;50.928;4.440;2024-01-07T10:22:02;25.85;;;14.60;;
21245;SDS011;10781;50.928;4.440;2024-01-07T10:24:35;26.48;;;14.32;;
21245;SDS011;10781;50.928;4.440;2024-01-07T10:27:03;25.15;;;14.75;;
21245;SDS011;10781;50.928;4.440;2024-01-07T10:29:29;26.23;;;15.05;;
21245;SDS011;10781;50.928;4.440;2024-01-07T10:31:58;25.80;;;15.30;;
21245;SDS011;10781;50.928;4.440;2024-01-07T10:34:27;26.85;;;14.50;;
21245;SDS011;10781;50.928;4.440;2024-01-07T10:36:58;22.63;;;13.20;;
21245;SDS011;10781;50.928;4.440;2024-01-07T10:39:24;25.20;;;14.50;;
21245;SDS011;10781;50.928;4.440;2024-01-07T10:41:51;25.00;;;13.57;;
21245;SDS011;10781;50.928;4.440;2024-01-07T10:44:23;23.67;;;13.30;;
21245;SDS011;10781;50.928;4.440;2024-01-07T10:46:55;19.70;;;12.18;;
21245;SDS011;10781;50.928;4.440;2024-01-07T10:49:23;20.65;;;12.00;;
21245;SDS011;10781;50.928;4.440;2024-01-07T10:52:03;25.58;;;13.77;;
21245;SDS011;10781;50.928;4.440;2024-01-07T10:54:30;22.02;;;13.30;;
21245;SDS011;10781;50.928;4.440;2024-01-07T10:57:03;21.50;;;12.98;;
21245;SDS011;10781;50.928;4.440;2024-01-07T10:59:52;22.88;;;12.98;;
21245;SDS011;10781;50.928;4.440;2024-01-07T11:02:20;23.08;;;13.50;;
21245;SDS011;10781;50.928;4.440;2024-01-07T11:07:35;20.15;;;11.40;;
21245;SDS011;10781;50.928;4.440;2024-01-07T11:10:13;19.70;;;11.65;;
21245;SDS011;10781;50.928;4.440;2024-01-07T11:12:43;18.23;;;11.15;;
21245;SDS011;10781;50.928;4.440;2024-01-07T11:15:09;19.17;;;11.27;;
21245;SDS011;10781;50.928;4.440;2024-01-07T11:20:01;18.23;;;11.70;;
21245;SDS011;10781;50.928;4.440;2024-01-07T11:22:28;19.48;;;11.75;;
21245;SDS011;10781;50.928;4.440;2024-01-07T11:24:54;18.98;;;12.15;;
21245;SDS011;10781;50.928;4.440;2024-01-07T11:27:24;18.98;;;12.10;;
21245;SDS011;10781;50.928;4.440;2024-01-07T11:30:01;19.55;;;12.55;;
21245;SDS011;10781;50.928;4.440;2024-01-07T11:32:31;18.40;;;11.20;;
21245;SDS011;10781;50.928;4.440;2024-01-07T11:34:59;20.27;;;11.15;;
21245;SDS011;10781;50.928;4.440;2024-01-07T11:37:26;20.33;;;11.52;;
21245;SDS011;10781;50.928;4.440;2024-01-07T11:39:55;19.25;;;11.50;;
21245;SDS011;10781;50.928;4.440;2024-01-07T11:42:22;18.52;;;10.25;;
21245;SDS011;10781;50.928;4.440;2024-01-07T11:44:48;20.90;;;11.02;;
21245;SDS011;10781;50.928;4.440;2024-01-07T11:47:18;21.48;;;11.70;;
21245;SDS011;10781;50.928;4.440;2024-01-07T11:49:45;18.88;;;11.35;;
21245;SDS011;10781;50.928;4.440;2024-01-07T11:52:11;19.17;;;11.25;;
21245;SDS011;10781;50.928;4.440;2024-01-07T11:54:38;18.42;;;10.95;;
21245;SDS011;10781;50.928;4.440;2024-01-07T11:57:04;19.67;;;10.73;;
21245;SDS011;10781;50.928;4.440;2024-01-07T11:59:31;17.08;;;10.15;;
21245;SDS011;10781;50.928;4.440;2024-01-07T12:01:59;20.50;;;10.93;;
21245;SDS011;10781;50.928;4.440;2024-01-07T12:04:26;18.40;;;10.45;;
21245;SDS011;10781;50.928;4.440;2024-01-07T12:06:55;17.00;;;10.02;;
21245;SDS011;10781;50.928;4.440;2024-01-07T12:09:21;17.60;;;10.63;;
21245;SDS011;10781;50.928;4.440;2024-01-07T12:11:48;20.55;;;11.27;;
21245;SDS011;10781;50.928;4.440;2024-01-07T12:14:14;20.23;;;10.25;;
21245;SDS011;10781;50.928;4.440;2024-01-07T12:16:40;20.95;;;9.95;;
21245;SDS011;10781;50.928;4.440;2024-01-07T12:19:08;16.13;;;9.23;;
21245;SDS011;10781;50.928;4.440;2024-01-07T12:21:35;18.75;;;10.27;;
21245;SDS011;10781;50.928;4.440;2024-01-07T12:24:00;16.67;;;10.25;;
21245;SDS011;10781;50.928;4.440;2024-01-07T12:26:26;18.05;;;10.05;;
21245;SDS011;10781;50.928;4.440;2024-01-07T12:28:53;18.58;;;9.80;;
21245;SDS011;10781;50.928;4.440;2024-01-07T12:31:22;16.55;;;9.63;;
21245;SDS011;10781;50.928;4.440;2024-01-07T12:33:52;17.23;;;9.90;;
21245;SDS011;10781;50.928;4.440;2024-01-07T12:36:23;16.48;;;9.82;;
21245;SDS011;10781;50.928;4.440;2024-01-07T12:38:49;15.55;;;10.02;;
21245;SDS011;10781;50.928;4.440;2024-01-07T12:41:20;17.33;;;9.98;;
21245;SDS011;10781;50.928;4.440;2024-01-07T12:43:46;19.75;;;11.45;;
21245;SDS011;10781;50.928;4.440;2024-01-07T12:46:12;41.47;;;22.55;;
21245;SDS011;10781;50.928;4.440;2024-01-07T12:48:37;16.05;;;10.27;;
21245;SDS011;10781;50.928;4.440;2024-01-07T12:51:06;33.70;;;18.60;;
21245;SDS011;10781;50.928;4.440;2024-01-07T12:53:32;17.02;;;9.82;;
21245;SDS011;10781;50.928;4.440;2024-01-07T12:55:58;14.82;;;9.43;;
21245;SDS011;10781;50.928;4.440;2024-01-07T12:58:23;18.50;;;10.25;;
21245;SDS011;10781;50.928;4.440;2024-01-07T13:00:49;15.48;;;10.85;;
21245;SDS011;10781;50.928;4.440;2024-01-07T13:03:14;15.13;;;10.02;;
21245;SDS011;10781;50.928;4.440;2024-01-07T13:05:43;16.38;;;10.77;;
21245;SDS011;10781;50.928;4.440;2024-01-07T13:08:11;17.63;;;10.45;;
21245;SDS011;10781;50.928;4.440;2024-01-07T13:10:39;16.42;;;9.73;;
21245;SDS011;10781;50.928;4.440;2024-01-07T13:13:05;14.75;;;9.40;;
21245;SDS011;10781;50.928;4.440;2024-01-07T13:15:31;16.88;;;9.85;;
21245;SDS011;10781;50.928;4.440;2024-01-07T13:17:57;17.70;;;9.95;;
21245;SDS011;10781;50.928;4.440;2024-01-07T13:20:22;15.80;;;10.02;;
21245;SDS011;10781;50.928;4.440;2024-01-07T13:22:49;14.80;;;9.68;;
21245;SDS011;10781;50.928;4.440;2024-01-07T13:25:15;16.65;;;9.80;;
21245;SDS011;10781;50.928;4.440;2024-01-07T13:27:41;14.15;;;9.32;;
21245;SDS011;10781;50.928;4.440;2024-01-07T13:30:12;15.35;;;10.45;;
21245;SDS011;10781;50.928;4.440;2024-01-07T13:32:38;28.58;;;17.05;;
21245;SDS011;10781;50.928;4.440;2024-01-07T13:35:06;50.03;;;26.23;;
21245;SDS011;10781;50.928;4.440;2024-01-07T13:37:38;36.58;;;22.08;;
21245;SDS011;10781;50.928;4.440;2024-01-07T13:40:08;17.98;;;12.23;;
21245;SDS011;10781;50.928;4.440;2024-01-07T13:42:35;13.00;;;9.07;;
21245;SDS011;10781;50.928;4.440;2024-01-07T13:45:02;12.55;;;8.70;;
21245;SDS011;10781;50.928;4.440;2024-01-07T13:47:28;13.57;;;8.95;;
21245;SDS011;10781;50.928;4.440;2024-01-07T13:49:54;12.65;;;9.02;;
21245;SDS011;10781;50.928;4.440;2024-01-07T13:52:20;12.60;;;9.00;;
21245;SDS011;10781;50.928;4.440;2024-01-07T13:54:45;13.77;;;9.40;;
21245;SDS011;10781;50.928;4.440;2024-01-07T13:57:11;12.68;;;9.02;;
21245;SDS011;10781;50.928;4.440;2024-01-07T13:59:38;12.60;;;8.63;;
21245;SDS011;10781;50.928;4.440;2024-01-07T14:02:05;15.93;;;8.93;;
21245;SDS011;10781;50.928;4.440;2024-01-07T14:04:32;14.27;;;9.38;;
21245;SDS011;10781;50.928;4.440;2024-01-07T14:06:58;14.55;;;9.43;;
21245;SDS011;10781;50.928;4.440;2024-01-07T14:09:23;12.50;;;9.23;;
21245;SDS011;10781;50.928;4.440;2024-01-07T14:11:49;16.00;;;9.90;;
21245;SDS011;10781;50.928;4.440;2024-01-07T14:14:15;15.82;;;10.35;;
21245;SDS011;10781;50.928;4.440;2024-01-07T14:16:41;14.95;;;10.05;;
21245;SDS011;10781;50.928;4.440;2024-01-07T14:19:07;15.07;;;9.40;;
21245;SDS011;10781;50.928;4.440;2024-01-07T14:21:32;14.40;;;9.48;;
21245;SDS011;10781;50.928;4.440;2024-01-07T14:23:58;16.98;;;9.82;;
21245;SDS011;10781;50.928;4.440;2024-01-07T14:26:24;14.95;;;9.63;;
21245;SDS011;10781;50.928;4.440;2024-01-07T14:28:50;18.08;;;10.23;;